Flight Track Log - Related Links

Times and Time Zones

All times are in EDT time to prevent confusion due to time zone crossing. See the ASQ5407 flight status page for this flight to view local times or setup timezone preferences in your user account.

Time Position Orientation Groundspeed Altitude Reporting Facility
EDT Latitude Longitude Course Direction KTS MPH feet Rate Location/Type
Fri 11:04:33 PM 33.6333 -84.3833 90° East 184 212 2,600  Level Atlanta TRACON
Fri 11:05:33 PM 33.6333 -84.3000 90° East 259 298 5,100 2,550 Climbing Atlanta TRACON
Fri 11:06:33 PM 33.6333 -84.2000 90° East 282 325 7,700 2,391 Climbing Atlanta TRACON
Fri 11:07:41 PM 33.6128 -84.0936 103° East 323 372 10,200 1,828 Climbing Atlanta Center
Fri 11:08:41 PM 33.5981 -83.9839 99° East 328 377 11,600 1,350 Climbing Atlanta Center
Fri 11:09:41 PM 33.5792 -83.8592 100° East 356 410 12,900 1,500 Climbing Atlanta Center
Fri 11:10:41 PM 33.5581 -83.7272 101° East 389 448 14,600 1,700 Climbing Atlanta Center
Fri 11:11:41 PM 33.5533 -83.5975 92° East 394 453 16,300 1,200 Climbing Atlanta Center
Fri 11:12:41 PM 33.5675 -83.4581 83° East 405 466 17,000 300 Climbing Atlanta Center
Fri 11:13:41 PM 33.5500 -83.3111 98° East 421 484 16,900 -100 Descending Atlanta Center
Fri 11:14:41 PM 33.5303 -83.1692 99° East 433 498 16,800 -600 Descending Atlanta Center
Fri 11:15:41 PM 33.5144 -83.0222 97° East 433 498 15,700 -1,700 Descending Atlanta Center
Fri 11:16:41 PM 33.4903 -82.8781 101° East 440 506 13,400 -2,050 Descending Atlanta Center
Fri 11:17:41 PM 33.4786 -82.7536 96° East 435 501 11,600 -1,400 Descending Atlanta Center
Fri 11:18:41 PM 33.4628 -82.6319 99° East 389 448 10,600 -1,150 Descending Atlanta Center
Fri 11:19:41 PM 33.4428 -82.5303 103° East 350 403 9,300 -1,500 Descending Atlanta Center
Fri 11:20:41 PM 33.4350 -82.4308 95° East 317 365 7,600 -1,850 Descending Atlanta Center
Fri 11:21:41 PM 33.4381 -82.3311 88° East 278 320 5,600 -1,850 Descending Atlanta Center
Fri 11:22:41 PM 33.4408 -82.2464 88° East 268 308 3,900 -1,650 Descending Atlanta Center
Fri 11:23:41 PM 33.4439 -82.1617 88° East 263 303 2,300 -850 Descending Atlanta Center
Fri 11:24:41 PM 33.4428 -82.0894 91° East 239 275 2,200 -200 Descending Atlanta Center
Fri 11:25:41 PM 33.4378 -82.0372 97° East 195 224 1,900 -450 Descending Atlanta Center
Fri 11:26:41 PM 33.4222 -81.9931 113° Southeast 159 183 1,300 -600 Descending Atlanta Center

Login

Don't have an account? Register now (free) for customized features, flight alerts, and more!